sensor_id;sensor_type;location;lat;lon;timestamp;P1;P2;P0
21358;PMS7003;13506;50.852;20.632;2022-09-29T00:00:34;6.00;6.00;2.00
21358;PMS7003;13506;50.852;20.632;2022-09-29T00:03:22;7.00;6.25;2.25
21358;PMS7003;13506;50.852;20.632;2022-09-29T00:05:52;5.20;5.20;3.00
21358;PMS7003;13506;50.852;20.632;2022-09-29T00:08:21;7.00;6.75;3.75
21358;PMS7003;13506;50.852;20.632;2022-09-29T00:10:50;8.60;7.80;3.00
21358;PMS7003;13506;50.852;20.632;2022-09-29T00:13:18;7.25;5.00;2.00
21358;PMS7003;13506;50.852;20.632;2022-09-29T00:15:53;3.00;3.00;1.25
21358;PMS7003;13506;50.852;20.632;2022-09-29T00:18:22;3.40;3.40;1.00
21358;PMS7003;13506;50.852;20.632;2022-09-29T00:20:58;5.00;4.00;1.40
21358;PMS7003;13506;50.852;20.632;2022-09-29T00:23:29;6.50;4.00;2.00
21358;PMS7003;13506;50.852;20.632;2022-09-29T00:26:03;5.25;5.25;2.00
21358;PMS7003;13506;50.852;20.632;2022-09-29T00:28:33;6.25;5.00;1.00
21358;PMS7003;13506;50.852;20.632;2022-09-29T00:31:02;4.75;4.50;1.00
21358;PMS7003;13506;50.852;20.632;2022-09-29T00:33:32;3.00;3.00;1.00
21358;PMS7003;13506;50.852;20.632;2022-09-29T00:36:03;3.00;3.00;1.00
21358;PMS7003;13506;50.852;20.632;2022-09-29T00:38:33;3.25;3.25;1.25
21358;PMS7003;13506;50.852;20.632;2022-09-29T00:41:02;2.75;2.75;0.75
21358;PMS7003;13506;50.852;20.632;2022-09-29T00:43:48;3.75;3.25;1.50
21358;PMS7003;13506;50.852;20.632;2022-09-29T00:46:22;2.60;2.60;1.20
21358;PMS7003;13506;50.852;20.632;2022-09-29T00:49:04;2.75;2.50;0.75
21358;PMS7003;13506;50.852;20.632;2022-09-29T00:51:41;3.00;3.00;1.00
21358;PMS7003;13506;50.852;20.632;2022-09-29T00:54:13;3.00;3.00;1.00
21358;PMS7003;13506;50.852;20.632;2022-09-29T00:56:43;3.50;3.50;1.00
21358;PMS7003;13506;50.852;20.632;2022-09-29T00:59:14;3.25;3.25;1.00
21358;PMS7003;13506;50.852;20.632;2022-09-29T01:01:47;4.00;4.00;1.00
21358;PMS7003;13506;50.852;20.632;2022-09-29T01:04:15;3.50;3.50;1.50
21358;PMS7003;13506;50.852;20.632;2022-09-29T01:06:48;4.00;4.00;1.25
21358;PMS7003;13506;50.852;20.632;2022-09-29T01:09:19;4.75;4.75;1.00
21358;PMS7003;13506;50.852;20.632;2022-09-29T01:11:51;2.75;2.75;0.75
21358;PMS7003;13506;50.852;20.632;2022-09-29T01:14:23;3.25;3.00;1.00
21358;PMS7003;13506;50.852;20.632;2022-09-29T01:16:52;2.25;2.25;1.00
21358;PMS7003;13506;50.852;20.632;2022-09-29T01:19:22;6.50;5.50;2.00
21358;PMS7003;13506;50.852;20.632;2022-09-29T01:22:03;4.00;3.00;1.00
21358;PMS7003;13506;50.852;20.632;2022-09-29T01:24:44;4.25;3.50;1.00
21358;PMS7003;13506;50.852;20.632;2022-09-29T01:30:23;3.50;3.50;1.50
21358;PMS7003;13506;50.852;20.632;2022-09-29T01:33:16;4.25;3.00;1.00
21358;PMS7003;13506;50.852;20.632;2022-09-29T01:35:55;4.00;4.00;1.75
21358;PMS7003;13506;50.852;20.632;2022-09-29T01:38:39;6.80;6.80;2.80
21358;PMS7003;13506;50.852;20.632;2022-09-29T01:41:17;5.80;5.80;2.20
21358;PMS7003;13506;50.852;20.632;2022-09-29T01:44:03;6.75;6.75;3.00
21358;PMS7003;13506;50.852;20.632;2022-09-29T01:46:40;5.75;5.75;2.00
21358;PMS7003;13506;50.852;20.632;2022-09-29T01:49:13;7.50;5.00;2.25
21358;PMS7003;13506;50.852;20.632;2022-09-29T01:51:45;8.00;6.50;2.00
21358;PMS7003;13506;50.852;20.632;2022-09-29T01:54:18;6.40;6.40;3.00
21358;PMS7003;13506;50.852;20.632;2022-09-29T01:56:50;7.00;7.00;3.00
21358;PMS7003;13506;50.852;20.632;2022-09-29T01:59:23;13.00;9.00;4.00
21358;PMS7003;13506;50.852;20.632;2022-09-29T02:01:59;8.20;7.40;3.40
21358;PMS7003;13506;50.852;20.632;2022-09-29T02:04:35;7.00;7.00;3.20
21358;PMS7003;13506;50.852;20.632;2022-09-29T02:07:07;7.50;7.50;4.00
21358;PMS7003;13506;50.852;20.632;2022-09-29T02:09:42;10.00;9.80;4.40
21358;PMS7003;13506;50.852;20.632;2022-09-29T02:12:16;11.80;10.80;6.00
21358;PMS7003;13506;50.852;20.632;2022-09-29T02:14:49;13.80;10.20;5.00
21358;PMS7003;13506;50.852;20.632;2022-09-29T02:17:21;8.40;8.40;4.00
21358;PMS7003;13506;50.852;20.632;2022-09-29T02:19:55;8.40;8.20;3.80
21358;PMS7003;13506;50.852;20.632;2022-09-29T02:22:23;9.40;7.40;3.00
21358;PMS7003;13506;50.852;20.632;2022-09-29T02:24:50;10.20;10.20;5.60
21358;PMS7003;13506;50.852;20.632;2022-09-29T02:27:21;9.60;8.80;3.00
21358;PMS7003;13506;50.852;20.632;2022-09-29T02:29:49;6.60;6.60;3.00
21358;PMS7003;13506;50.852;20.632;2022-09-29T02:32:17;6.60;6.60;3.00
21358;PMS7003;13506;50.852;20.632;2022-09-29T02:34:47;10.00;8.60;4.00
21358;PMS7003;13506;50.852;20.632;2022-09-29T02:37:26;7.20;7.20;3.00
21358;PMS7003;13506;50.852;20.632;2022-09-29T02:40:06;8.20;7.80;3.00
21358;PMS7003;13506;50.852;20.632;2022-09-29T02:42:45;10.25;7.25;3.00
21358;PMS7003;13506;50.852;20.632;2022-09-29T02:45:29;8.00;8.00;3.00
21358;PMS7003;13506;50.852;20.632;2022-09-29T02:48:07;9.80;9.80;4.60
21358;PMS7003;13506;50.852;20.632;2022-09-29T02:51:06;8.60;7.00;2.60
21358;PMS7003;13506;50.852;20.632;2022-09-29T02:53:51;7.50;5.50;2.50
21358;PMS7003;13506;50.852;20.632;2022-09-29T02:56:30;7.00;4.75;2.50
21358;PMS7003;13506;50.852;20.632;2022-09-29T02:59:12;8.75;8.75;3.75
21358;PMS7003;13506;50.852;20.632;2022-09-29T03:01:46;4.80;4.80;2.00
21358;PMS7003;13506;50.852;20.632;2022-09-29T03:04:16;8.00;8.00;3.00
21358;PMS7003;13506;50.852;20.632;2022-09-29T03:06:45;7.75;7.75;3.75
21358;PMS7003;13506;50.852;20.632;2022-09-29T03:09:13;7.60;7.60;4.00
21358;PMS7003;13506;50.852;20.632;2022-09-29T03:11:41;7.75;7.00;3.00
21358;PMS7003;13506;50.852;20.632;2022-09-29T03:14:08;8.25;6.00;3.00
21358;PMS7003;13506;50.852;20.632;2022-09-29T03:16:37;10.40;8.80;3.60
21358;PMS7003;13506;50.852;20.632;2022-09-29T03:19:05;8.00;8.00;4.00
21358;PMS7003;13506;50.852;20.632;2022-09-29T03:21:32;9.00;9.00;3.00
21358;PMS7003;13506;50.852;20.632;2022-09-29T03:24:02;6.00;5.50;2.00
21358;PMS7003;13506;50.852;20.632;2022-09-29T03:26:30;7.20;7.20;3.00
21358;PMS7003;13506;50.852;20.632;2022-09-29T03:28:58;9.60;8.40;3.00
21358;PMS7003;13506;50.852;20.632;2022-09-29T03:31:26;9.00;8.50;3.50
21358;PMS7003;13506;50.852;20.632;2022-09-29T03:33:53;8.40;8.40;3.80
21358;PMS7003;13506;50.852;20.632;2022-09-29T03:36:21;10.80;9.60;4.00
21358;PMS7003;13506;50.852;20.632;2022-09-29T03:38:49;9.00;9.00;4.25
21358;PMS7003;13506;50.852;20.632;2022-09-29T03:41:18;9.00;9.00;4.00
21358;PMS7003;13506;50.852;20.632;2022-09-29T03:43:45;12.20;9.20;4.00
21358;PMS7003;13506;50.852;20.632;2022-09-29T03:46:13;9.20;8.00;4.00
21358;PMS7003;13506;50.852;20.632;2022-09-29T03:48:41;9.00;8.00;4.40
21358;PMS7003;13506;50.852;20.632;2022-09-29T03:51:08;10.20;8.60;3.40
21358;PMS7003;13506;50.852;20.632;2022-09-29T03:53:36;9.00;9.00;4.20
21358;PMS7003;13506;50.852;20.632;2022-09-29T03:56:04;10.40;8.60;4.00
21358;PMS7003;13506;50.852;20.632;2022-09-29T03:58:33;8.00;8.00;3.60
21358;PMS7003;13506;50.852;20.632;2022-09-29T04:01:01;9.20;9.20;5.00
21358;PMS7003;13506;50.852;20.632;2022-09-29T04:03:28;10.50;9.25;3.75
21358;PMS7003;13506;50.852;20.632;2022-09-29T04:05:55;9.75;8.00;4.50
21358;PMS7003;13506;50.852;20.632;2022-09-29T04:08:23;8.00;7.50;4.75
21358;PMS7003;13506;50.852;20.632;2022-09-29T04:10:50;9.75;9.75;4.75
21358;PMS7003;13506;50.852;20.632;2022-09-29T04:13:18;10.20;9.00;4.00
21358;PMS7003;13506;50.852;20.632;2022-09-29T04:15:48;9.75;9.75;4.75
21358;PMS7003;13506;50.852;20.632;2022-09-29T04:18:16;12.00;11.50;4.25
21358;PMS7003;13506;50.852;20.632;2022-09-29T04:20:43;8.80;8.80;5.40
21358;PMS7003;13506;50.852;20.632;2022-09-29T04:23:11;10.40;8.80;4.60
21358;PMS7003;13506;50.852;20.632;2022-09-29T04:25:39;11.40;10.20;6.80
21358;PMS7003;13506;50.852;20.632;2022-09-29T04:28:06;8.25;8.25;3.75
21358;PMS7003;13506;50.852;20.632;2022-09-29T04:30:34;9.60;9.60;5.20
21358;PMS7003;13506;50.852;20.632;2022-09-29T04:33:03;9.00;9.00;4.00
21358;PMS7003;13506;50.852;20.632;2022-09-29T04:35:31;9.60;9.60;6.40
21358;PMS7003;13506;50.852;20.632;2022-09-29T04:37:59;12.40;10.80;6.80
21358;PMS7003;13506;50.852;20.632;2022-09-29T04:40:26;14.00;12.80;7.80
21358;PMS7003;13506;50.852;20.632;2022-09-29T04:42:54;11.20;10.60;6.00
21358;PMS7003;13506;50.852;20.632;2022-09-29T04:45:22;13.40;11.40;6.60
21358;PMS7003;13506;50.852;20.632;2022-09-29T04:47:50;12.60;11.20;7.00
21358;PMS7003;13506;50.852;20.632;2022-09-29T04:50:19;11.20;11.20;6.80
21358;PMS7003;13506;50.852;20.632;2022-09-29T04:52:47;10.40;10.00;5.40
21358;PMS7003;13506;50.852;20.632;2022-09-29T04:55:14;11.00;10.20;6.00
21358;PMS7003;13506;50.852;20.632;2022-09-29T04:57:43;13.00;12.00;7.00
21358;PMS7003;13506;50.852;20.632;2022-09-29T05:00:11;15.20;13.00;6.20
21358;PMS7003;13506;50.852;20.632;2022-09-29T05:02:39;43.60;38.20;24.40
21358;PMS7003;13506;50.852;20.632;2022-09-29T05:05:08;55.75;43.50;25.75
21358;PMS7003;13506;50.852;20.632;2022-09-29T05:07:38;20.40;18.40;10.00
21358;PMS7003;13506;50.852;20.632;2022-09-29T05:10:07;14.00;13.40;7.80
21358;PMS7003;13506;50.852;20.632;2022-09-29T05:12:36;12.00;12.00;6.40
21358;PMS7003;13506;50.852;20.632;2022-09-29T05:15:05;13.00;13.00;8.00
21358;PMS7003;13506;50.852;20.632;2022-09-29T05:17:33;12.60;12.40;7.40
21358;PMS7003;13506;50.852;20.632;2022-09-29T05:20:01;13.00;12.20;7.40
21358;PMS7003;13506;50.852;20.632;2022-09-29T05:22:30;10.80;10.20;6.40
21358;PMS7003;13506;50.852;20.632;2022-09-29T05:24:59;13.20;13.20;7.80
21358;PMS7003;13506;50.852;20.632;2022-09-29T05:27:27;13.20;12.00;7.20
21358;PMS7003;13506;50.852;20.632;2022-09-29T05:29:55;19.40;15.20;7.20
21358;PMS7003;13506;50.852;20.632;2022-09-29T05:32:22;13.75;12.00;7.25
21358;PMS7003;13506;50.852;20.632;2022-09-29T05:34:50;12.60;11.40;7.40
21358;PMS7003;13506;50.852;20.632;2022-09-29T05:37:18;12.20;10.40;5.80
21358;PMS7003;13506;50.852;20.632;2022-09-29T05:39:45;13.40;13.40;8.00
21358;PMS7003;13506;50.852;20.632;2022-09-29T05:42:14;15.20;14.00;8.40
21358;PMS7003;13506;50.852;20.632;2022-09-29T05:44:42;12.20;9.80;6.20
21358;PMS7003;13506;50.852;20.632;2022-09-29T05:47:09;15.20;11.80;7.00
21358;PMS7003;13506;50.852;20.632;2022-09-29T05:49:37;13.80;12.00;6.40
21358;PMS7003;13506;50.852;20.632;2022-09-29T05:52:05;12.40;10.00;6.20
21358;PMS7003;13506;50.852;20.632;2022-09-29T05:54:33;13.20;12.00;7.00
21358;PMS7003;13506;50.852;20.632;2022-09-29T05:57:01;11.80;11.80;6.40
21358;PMS7003;13506;50.852;20.632;2022-09-29T05:59:30;14.80;12.40;7.80
21358;PMS7003;13506;50.852;20.632;2022-09-29T06:01:57;12.50;11.25;7.00
21358;PMS7003;13506;50.852;20.632;2022-09-29T06:04:25;12.00;12.00;7.00
21358;PMS7003;13506;50.852;20.632;2022-09-29T06:06:53;17.60;13.00;7.20
21358;PMS7003;13506;50.852;20.632;2022-09-29T06:09:21;13.20;12.80;7.00
21358;PMS7003;13506;50.852;20.632;2022-09-29T06:11:49;19.00;15.00;9.60
21358;PMS7003;13506;50.852;20.632;2022-09-29T06:14:17;17.20;14.00;8.40
21358;PMS7003;13506;50.852;20.632;2022-09-29T06:16:46;16.80;14.60;8.60
21358;PMS7003;13506;50.852;20.632;2022-09-29T06:19:14;12.60;12.60;8.00
21358;PMS7003;13506;50.852;20.632;2022-09-29T06:21:42;16.40;13.80;9.00
21358;PMS7003;13506;50.852;20.632;2022-09-29T06:24:10;14.60;13.40;5.80
21358;PMS7003;13506;50.852;20.632;2022-09-29T06:26:37;14.40;14.40;9.00
21358;PMS7003;13506;50.852;20.632;2022-09-29T06:29:05;14.80;13.80;7.40
21358;PMS7003;13506;50.852;20.632;2022-09-29T06:31:33;15.80;13.60;8.40
21358;PMS7003;13506;50.852;20.632;2022-09-29T06:34:03;14.60;12.00;7.00
21358;PMS7003;13506;50.852;20.632;2022-09-29T06:36:32;21.00;15.20;8.00
21358;PMS7003;13506;50.852;20.632;2022-09-29T06:39:21;16.60;14.20;9.60
21358;PMS7003;13506;50.852;20.632;2022-09-29T06:41:49;13.80;13.60;8.00
21358;PMS7003;13506;50.852;20.632;2022-09-29T06:44:18;17.40;15.00;8.80
21358;PMS7003;13506;50.852;20.632;2022-09-29T06:46:47;16.20;15.00;9.00
21358;PMS7003;13506;50.852;20.632;2022-09-29T06:49:17;11.20;10.60;6.60
21358;PMS7003;13506;50.852;20.632;2022-09-29T06:51:45;18.00;15.00;8.80
21358;PMS7003;13506;50.852;20.632;2022-09-29T06:54:14;14.80;13.80;7.60
21358;PMS7003;13506;50.852;20.632;2022-09-29T06:56:45;12.80;12.20;7.00
21358;PMS7003;13506;50.852;20.632;2022-09-29T06:59:13;15.20;14.40;9.60
21358;PMS7003;13506;50.852;20.632;2022-09-29T07:01:41;14.60;11.60;7.20
21358;PMS7003;13506;50.852;20.632;2022-09-29T07:04:10;14.20;13.60;7.00
21358;PMS7003;13506;50.852;20.632;2022-09-29T07:06:39;13.80;13.80;8.00
21358;PMS7003;13506;50.852;20.632;2022-09-29T07:09:07;11.00;10.00;6.20
21358;PMS7003;13506;50.852;20.632;2022-09-29T07:11:40;14.00;13.80;8.40
21358;PMS7003;13506;50.852;20.632;2022-09-29T07:14:09;15.60;13.60;7.60
21358;PMS7003;13506;50.852;20.632;2022-09-29T07:16:37;14.00;12.80;7.80
21358;PMS7003;13506;50.852;20.632;2022-09-29T07:19:04;16.40;13.40;8.00
21358;PMS7003;13506;50.852;20.632;2022-09-29T07:21:32;15.40;12.60;6.60
21358;PMS7003;13506;50.852;20.632;2022-09-29T07:24:01;14.20;10.40;6.40
21358;PMS7003;13506;50.852;20.632;2022-09-29T07:26:29;12.75;11.00;5.75
21358;PMS7003;13506;50.852;20.632;2022-09-29T07:28:57;15.00;12.60;8.20
21358;PMS7003;13506;50.852;20.632;2022-09-29T07:31:25;14.80;14.20;8.00
21358;PMS7003;13506;50.852;20.632;2022-09-29T07:33:53;13.60;13.40;6.60
21358;PMS7003;13506;50.852;20.632;2022-09-29T07:36:22;14.00;14.00;6.60
21358;PMS7003;13506;50.852;20.632;2022-09-29T07:38:50;15.20;13.40;6.80
21358;PMS7003;13506;50.852;20.632;2022-09-29T07:41:20;13.00;11.80;6.40
21358;PMS7003;13506;50.852;20.632;2022-09-29T07:43:48;13.60;13.00;8.20
21358;PMS7003;13506;50.852;20.632;2022-09-29T07:46:16;13.20;11.60;7.60
21358;PMS7003;13506;50.852;20.632;2022-09-29T07:48:44;13.80;11.60;7.00
21358;PMS7003;13506;50.852;20.632;2022-09-29T07:51:12;16.60;13.00;7.00
21358;PMS7003;13506;50.852;20.632;2022-09-29T07:53:41;14.00;13.40;8.00
21358;PMS7003;13506;50.852;20.632;2022-09-29T07:56:10;13.00;12.00;6.80
21358;PMS7003;13506;50.852;20.632;2022-09-29T07:58:43;14.40;12.80;6.80
21358;PMS7003;13506;50.852;20.632;2022-09-29T08:01:12;15.80;13.60;7.00
21358;PMS7003;13506;50.852;20.632;2022-09-29T08:03:41;15.20;13.40;8.40
21358;PMS7003;13506;50.852;20.632;2022-09-29T08:06:10;14.60;12.80;6.60
21358;PMS7003;13506;50.852;20.632;2022-09-29T08:08:40;20.00;13.00;7.40
21358;PMS7003;13506;50.852;20.632;2022-09-29T08:11:09;14.00;13.80;8.20
21358;PMS7003;13506;50.852;20.632;2022-09-29T08:13:39;17.40;15.40;8.40
21358;PMS7003;13506;50.852;20.632;2022-09-29T08:16:09;12.40;11.40;7.00
21358;PMS7003;13506;50.852;20.632;2022-09-29T08:18:39;14.60;14.20;7.40
21358;PMS7003;13506;50.852;20.632;2022-09-29T08:21:07;14.80;13.40;7.00
21358;PMS7003;13506;50.852;20.632;2022-09-29T08:23:38;14.40;13.40;8.60
21358;PMS7003;13506;50.852;20.632;2022-09-29T08:26:07;14.20;14.00;7.00
21358;PMS7003;13506;50.852;20.632;2022-09-29T08:28:37;13.00;11.80;6.80
21358;PMS7003;13506;50.852;20.632;2022-09-29T08:31:06;18.20;13.60;8.00
21358;PMS7003;13506;50.852;20.632;2022-09-29T08:33:37;13.00;12.20;6.00
21358;PMS7003;13506;50.852;20.632;2022-09-29T08:36:06;11.80;9.80;4.80
21358;PMS7003;13506;50.852;20.632;2022-09-29T08:38:39;14.00;12.00;6.00
21358;PMS7003;13506;50.852;20.632;2022-09-29T08:41:15;14.80;11.60;6.00
21358;PMS7003;13506;50.852;20.632;2022-09-29T08:43:59;12.80;12.40;5.80
21358;PMS7003;13506;50.852;20.632;2022-09-29T08:46:36;12.60;9.80;5.00
21358;PMS7003;13506;50.852;20.632;2022-09-29T08:49:09;9.00;8.00;4.00
21358;PMS7003;13506;50.852;20.632;2022-09-29T08:51:44;11.00;10.50;4.00
21358;PMS7003;13506;50.852;20.632;2022-09-29T08:54:19;12.40;10.20;6.00
21358;PMS7003;13506;50.852;20.632;2022-09-29T08:56:53;9.75;7.75;3.50
21358;PMS7003;13506;50.852;20.632;2022-09-29T08:59:22;11.75;8.75;4.75
21358;PMS7003;13506;50.852;20.632;2022-09-29T09:01:57;12.60;10.00;4.00
21358;PMS7003;13506;50.852;20.632;2022-09-29T09:07:36;11.40;10.00;5.40
21358;PMS7003;13506;50.852;20.632;2022-09-29T09:10:15;9.00;8.00;4.00
21358;PMS7003;13506;50.852;20.632;2022-09-29T09:13:11;8.20;8.20;4.80
21358;PMS7003;13506;50.852;20.632;2022-09-29T09:15:53;9.60;8.80;4.00
21358;PMS7003;13506;50.852;20.632;2022-09-29T09:18:43;9.00;8.20;4.00
21358;PMS7003;13506;50.852;20.632;2022-09-29T09:21:39;9.00;9.00;4.00
21358;PMS7003;13506;50.852;20.632;2022-09-29T09:24:14;10.60;8.00;3.40
21358;PMS7003;13506;50.852;20.632;2022-09-29T09:26:47;9.20;9.20;5.00
21358;PMS7003;13506;50.852;20.632;2022-09-29T09:29:17;11.60;9.60;6.20
21358;PMS7003;13506;50.852;20.632;2022-09-29T09:31:53;10.00;8.60;4.00
21358;PMS7003;13506;50.852;20.632;2022-09-29T09:34:28;9.00;9.00;4.00
21358;PMS7003;13506;50.852;20.632;2022-09-29T09:37:02;10.60;10.60;6.60
21358;PMS7003;13506;50.852;20.632;2022-09-29T09:39:35;10.00;8.00;3.60
21358;PMS7003;13506;50.852;20.632;2022-09-29T09:42:11;9.60;8.00;4.00
21358;PMS7003;13506;50.852;20.632;2022-09-29T09:44:44;14.00;10.40;5.00
21358;PMS7003;13506;50.852;20.632;2022-09-29T09:47:20;10.00;9.00;4.00
21358;PMS7003;13506;50.852;20.632;2022-09-29T09:49:53;8.25;8.25;3.00
21358;PMS7003;13506;50.852;20.632;2022-09-29T09:52:27;9.50;8.00;3.50
21358;PMS7003;13506;50.852;20.632;2022-09-29T09:54:59;9.40;8.20;4.00
21358;PMS7003;13506;50.852;20.632;2022-09-29T09:57:43;8.00;8.00;3.00
21358;PMS7003;13506;50.852;20.632;2022-09-29T10:00:45;8.60;8.20;3.00
21358;PMS7003;13506;50.852;20.632;2022-09-29T10:03:17;10.40;10.00;4.80
21358;PMS7003;13506;50.852;20.632;2022-09-29T10:05:46;10.80;10.80;5.20
21358;PMS7003;13506;50.852;20.632;2022-09-29T10:08:17;8.25;8.00;4.00
21358;PMS7003;13506;50.852;20.632;2022-09-29T10:10:50;11.40;11.40;5.40
21358;PMS7003;13506;50.852;20.632;2022-09-29T10:13:18;11.40;8.80;5.00
21358;PMS7003;13506;50.852;20.632;2022-09-29T10:15:51;9.75;9.75;6.50
21358;PMS7003;13506;50.852;20.632;2022-09-29T10:18:27;12.60;9.20;4.80
21358;PMS7003;13506;50.852;20.632;2022-09-29T10:21:03;9.20;9.00;4.00
21358;PMS7003;13506;50.852;20.632;2022-09-29T10:23:49;8.75;8.50;3.75
21358;PMS7003;13506;50.852;20.632;2022-09-29T10:26:18;10.25;8.75;4.00
21358;PMS7003;13506;50.852;20.632;2022-09-29T10:28:51;8.00;8.00;3.50
21358;PMS7003;13506;50.852;20.632;2022-09-29T10:31:23;6.50;6.50;3.25
21358;PMS7003;13506;50.852;20.632;2022-09-29T10:33:55;9.75;7.75;3.25
21358;PMS7003;13506;50.852;20.632;2022-09-29T10:36:27;11.00;9.75;3.75
21358;PMS7003;13506;50.852;20.632;2022-09-29T10:38:59;7.25;7.25;4.00
21358;PMS7003;13506;50.852;20.632;2022-09-29T10:41:26;5.60;5.60;3.00
21358;PMS7003;13506;50.852;20.632;2022-09-29T10:43:55;7.75;7.75;3.75
21358;PMS7003;13506;50.852;20.632;2022-09-29T10:46:47;7.50;7.50;3.00
21358;PMS7003;13506;50.852;20.632;2022-09-29T10:49:17;7.00;7.00;2.25
21358;PMS7003;13506;50.852;20.632;2022-09-29T10:51:51;8.75;7.25;3.50
21358;PMS7003;13506;50.852;20.632;2022-09-29T10:54:22;8.60;8.00;3.20
21358;PMS7003;13506;50.852;20.632;2022-09-29T10:56:52;9.60;9.20;5.20
21358;PMS7003;13506;50.852;20.632;2022-09-29T10:59:21;11.80;8.60;4.00
21358;PMS7003;13506;50.852;20.632;2022-09-29T11:01:52;7.80;7.60;3.60
21358;PMS7003;13506;50.852;20.632;2022-09-29T11:04:24;9.75;6.75;2.75
21358;PMS7003;13506;50.852;20.632;2022-09-29T11:06:56;6.60;6.60;3.00
21358;PMS7003;13506;50.852;20.632;2022-09-29T11:09:35;9.00;9.00;3.20
21358;PMS7003;13506;50.852;20.632;2022-09-29T11:12:05;8.60;8.60;3.40
21358;PMS7003;13506;50.852;20.632;2022-09-29T11:14:51;8.40;7.00;3.00
21358;PMS7003;13506;50.852;20.632;2022-09-29T11:17:20;7.80;7.00;3.00
21358;PMS7003;13506;50.852;20.632;2022-09-29T11:19:49;5.40;5.40;3.00
21358;PMS7003;13506;50.852;20.632;2022-09-29T11:22:36;8.80;7.60;3.00
21358;PMS7003;13506;50.852;20.632;2022-09-29T11:25:30;8.00;7.60;3.20
21358;PMS7003;13506;50.852;20.632;2022-09-29T11:28:40;8.40;7.60;4.00
21358;PMS7003;13506;50.852;20.632;2022-09-29T11:31:31;9.20;8.60;4.00
21358;PMS7003;13506;50.852;20.632;2022-09-29T11:37:05;8.80;7.20;3.40
21358;PMS7003;13506;50.852;20.632;2022-09-29T11:39:51;9.80;9.60;5.20
21358;PMS7003;13506;50.852;20.632;2022-09-29T11:42:38;10.00;10.00;7.00
21358;PMS7003;13506;50.852;20.632;2022-09-29T11:45:22;12.40;8.40;4.00
21358;PMS7003;13506;50.852;20.632;2022-09-29T11:48:06;8.00;8.00;4.00
21358;PMS7003;13506;50.852;20.632;2022-09-29T11:51:00;9.40;5.60;3.20
21358;PMS7003;13506;50.852;20.632;2022-09-29T11:53:43;9.40;7.80;4.00
21358;PMS7003;13506;50.852;20.632;2022-09-29T11:56:32;8.60;8.60;4.00
21358;PMS7003;13506;50.852;20.632;2022-09-29T11:59:15;7.50;6.00;3.00
21358;PMS7003;13506;50.852;20.632;2022-09-29T12:02:15;8.75;8.75;4.00
21358;PMS7003;13506;50.852;20.632;2022-09-29T12:05:13;6.25;6.25;3.25
21358;PMS7003;13506;50.852;20.632;2022-09-29T12:07:51;8.60;6.60;3.00
21358;PMS7003;13506;50.852;20.632;2022-09-29T12:10:32;8.00;6.80;4.00
21358;PMS7003;13506;50.852;20.632;2022-09-29T12:13:14;9.50;7.00;3.00
21358;PMS7003;13506;50.852;20.632;2022-09-29T12:15:53;8.60;8.00;4.00
21358;PMS7003;13506;50.852;20.632;2022-09-29T12:18:26;7.40;6.20;3.00
21358;PMS7003;13506;50.852;20.632;2022-09-29T12:20:58;7.50;6.50;3.00
21358;PMS7003;13506;50.852;20.632;2022-09-29T12:23:28;12.00;8.00;3.80
21358;PMS7003;13506;50.852;20.632;2022-09-29T12:26:03;7.00;7.00;3.00
21358;PMS7003;13506;50.852;20.632;2022-09-29T12:28:38;8.20;7.60;3.00
21358;PMS7003;13506;50.852;20.632;2022-09-29T12:31:15;10.40;7.80;4.00
21358;PMS7003;13506;50.852;20.632;2022-09-29T12:33:49;9.00;8.40;3.20
21358;PMS7003;13506;50.852;20.632;2022-09-29T12:36:39;8.40;6.80;2.80
21358;PMS7003;13506;50.852;20.632;2022-09-29T12:42:16;8.60;7.80;3.80
21358;PMS7003;13506;50.852;20.632;2022-09-29T12:45:23;8.75;7.00;3.25
21358;PMS7003;13506;50.852;20.632;2022-09-29T12:47:58;7.00;5.25;3.00
21358;PMS7003;13506;50.852;20.632;2022-09-29T12:50:43;9.20;7.20;2.40
21358;PMS7003;13506;50.852;20.632;2022-09-29T12:53:16;8.80;8.80;4.20
21358;PMS7003;13506;50.852;20.632;2022-09-29T12:55:49;7.80;7.80;4.00
21358;PMS7003;13506;50.852;20.632;2022-09-29T12:58:26;8.60;8.60;5.00
21358;PMS7003;13506;50.852;20.632;2022-09-29T13:01:08;13.80;12.40;7.40
21358;PMS7003;13506;50.852;20.632;2022-09-29T13:03:54;10.60;9.00;4.80
21358;PMS7003;13506;50.852;20.632;2022-09-29T13:06:55;7.60;7.60;4.00
21358;PMS7003;13506;50.852;20.632;2022-09-29T13:09:50;7.80;7.80;3.00
21358;PMS7003;13506;50.852;20.632;2022-09-29T13:12:36;6.60;6.60;3.00
21358;PMS7003;13506;50.852;20.632;2022-09-29T13:15:26;6.50;6.50;3.25
21358;PMS7003;13506;50.852;20.632;2022-09-29T13:18:18;5.25;4.50;2.25
21358;PMS7003;13506;50.852;20.632;2022-09-29T13:21:07;8.80;8.60;4.00
21358;PMS7003;13506;50.852;20.632;2022-09-29T13:23:51;8.80;8.00;4.20
21358;PMS7003;13506;50.852;20.632;2022-09-29T13:26:38;8.40;6.00;3.00
21358;PMS7003;13506;50.852;20.632;2022-09-29T13:29:36;7.40;4.80;2.40
21358;PMS7003;13506;50.852;20.632;2022-09-29T13:32:11;8.50;6.25;3.50
21358;PMS7003;13506;50.852;20.632;2022-09-29T13:34:45;8.25;7.25;3.00
21358;PMS7003;13506;50.852;20.632;2022-09-29T13:37:17;6.80;6.80;3.00
21358;PMS7003;13506;50.852;20.632;2022-09-29T13:39:52;7.80;6.40;3.40
21358;PMS7003;13506;50.852;20.632;2022-09-29T13:42:26;9.40;7.60;3.00
21358;PMS7003;13506;50.852;20.632;2022-09-29T13:45:17;7.20;7.20;3.00
21358;PMS7003;13506;50.852;20.632;2022-09-29T13:54:19;25.60;21.80;12.20
21358;PMS7003;13506;50.852;20.632;2022-09-29T14:00:03;7.60;6.60;4.00
21358;PMS7003;13506;50.852;20.632;2022-09-29T14:03:00;8.20;7.40;4.00
21358;PMS7003;13506;50.852;20.632;2022-09-29T14:05:43;9.00;7.80;4.00
21358;PMS7003;13506;50.852;20.632;2022-09-29T14:08:42;7.20;7.00;3.00
21358;PMS7003;13506;50.852;20.632;2022-09-29T14:11:14;9.20;8.40;3.80
21358;PMS7003;13506;50.852;20.632;2022-09-29T14:13:48;6.80;6.00;3.00
21358;PMS7003;13506;50.852;20.632;2022-09-29T14:19:19;8.20;8.20;3.40
21358;PMS7003;13506;50.852;20.632;2022-09-29T14:21:59;8.00;7.00;3.20
21358;PMS7003;13506;50.852;20.632;2022-09-29T14:24:41;10.60;9.60;4.40
21358;PMS7003;13506;50.852;20.632;2022-09-29T14:27:20;11.40;8.80;4.00
21358;PMS7003;13506;50.852;20.632;2022-09-29T14:30:00;6.40;6.40;3.00
21358;PMS7003;13506;50.852;20.632;2022-09-29T14:32:38;10.20;6.60;3.60
21358;PMS7003;13506;50.852;20.632;2022-09-29T14:35:18;8.00;7.00;3.80
21358;PMS7003;13506;50.852;20.632;2022-09-29T14:37:55;7.20;7.20;4.00
21358;PMS7003;13506;50.852;20.632;2022-09-29T14:40:28;7.40;6.20;3.00
21358;PMS7003;13506;50.852;20.632;2022-09-29T14:45:58;8.00;8.00;4.00
21358;PMS7003;13506;50.852;20.632;2022-09-29T14:49:05;8.60;8.00;3.00
21358;PMS7003;13506;50.852;20.632;2022-09-29T14:52:08;11.60;9.60;5.00
21358;PMS7003;13506;50.852;20.632;2022-09-29T14:54:50;11.00;9.80;5.00
21358;PMS7003;13506;50.852;20.632;2022-09-29T14:57:33;9.20;8.60;4.40
21358;PMS7003;13506;50.852;20.632;2022-09-29T15:00:17;6.40;6.40;3.00
21358;PMS7003;13506;50.852;20.632;2022-09-29T15:02:48;8.20;8.20;4.00
21358;PMS7003;13506;50.852;20.632;2022-09-29T15:05:24;6.20;5.00;2.80
21358;PMS7003;13506;50.852;20.632;2022-09-29T15:07:54;4.75;4.75;3.00